Time;durP1;ratioP1;P1;durP2;ratioP2;P2;SDS_P1;SDS_P2;PMS_P1;PMS_P2;Temp;Humidity;BMP_temperature;BMP_pressure;BME280_temperature;BME280_humidity;BME280_pressure;Samples;Min_cycle;Max_cycle;Signal;HPM_P1;HPM_P2
2022/03/23 00:00:07;;;;;;;12.95;11.80;;;;;;;;;;1617673;30;21991;-63
2022/03/23 00:00:59;;;;;;;11.90;10.95;;;;;;;;;;1616644;30;21671;-63
2022/03/23 00:01:51;;;;;;;13.25;11.30;;;;;;;;;;1617981;30;21605;-63
2022/03/23 00:02:43;;;;;;;12.85;11.65;;;;;;;;;;1618277;30;21922;-62
2022/03/23 00:03:37;;;;;;;11.98;11.07;;;;;;;;;;1617075;30;22293;-63
2022/03/23 00:04:28;;;;;;;15.85;10.90;;;;;;;;;;1618034;30;22402;-62
2022/03/23 00:05:20;;;;;;;14.50;10.80;;;;;;;;;;1620662;30;21957;-62
2022/03/23 00:06:13;;;;;;;12.18;11.18;;;;;;;;;;1618061;30;21618;-62
2022/03/23 00:07:05;;;;;;;12.70;11.65;;;;;;;;;;1619035;30;21583;-62
2022/03/23 00:07:57;;;;;;;14.98;11.40;;;;;;;;;;1617631;30;21884;-63
2022/03/23 00:08:49;;;;;;;12.20;11.10;;;;;;;;;;1616635;30;22428;-63
2022/03/23 00:09:40;;;;;;;12.57;11.32;;;;;;;;;;1617643;30;22619;-63
2022/03/23 00:10:34;;;;;;;13.20;11.88;;;;;;;;;;1617939;30;21880;-63
2022/03/23 00:11:26;;;;;;;11.95;11.10;;;;;;;;;;1618759;30;21776;-63
2022/03/23 00:12:18;;;;;;;12.43;11.38;;;;;;;;;;1618127;30;22358;-63
2022/03/23 00:13:09;;;;;;;12.35;11.35;;;;;;;;;;1618265;30;21599;-61
2022/03/23 00:14:01;;;;;;;11.50;10.68;;;;;;;;;;1616912;30;21613;-62
2022/03/23 00:14:53;;;;;;;11.45;10.63;;;;;;;;;;1622811;29;21965;-64
2022/03/23 00:15:46;;;;;;;13.63;11.07;;;;;;;;;;1617241;30;21583;-62
2022/03/23 00:16:39;;;;;;;13.20;11.85;;;;;;;;;;1616292;30;21798;-62
2022/03/23 00:17:31;;;;;;;12.18;10.98;;;;;;;;;;1616594;30;22010;-62
2022/03/23 00:18:23;;;;;;;12.45;10.75;;;;;;;;;;1617297;30;22097;-62
2022/03/23 00:19:16;;;;;;;11.90;11.02;;;;;;;;;;1620303;30;21574;-64
2022/03/23 00:20:09;;;;;;;15.40;11.45;;;;;;;;;;1617806;30;21967;-62
2022/03/23 00:21:01;;;;;;;12.27;11.15;;;;;;;;;;1617879;30;21646;-64
2022/03/23 00:21:52;;;;;;;12.18;10.98;;;;;;;;;;1616129;30;22121;-62
2022/03/23 00:22:44;;;;;;;11.10;10.40;;;;;;;;;;1617885;30;21728;-62
2022/03/23 00:23:36;;;;;;;13.05;11.65;;;;;;;;;;1618439;30;22096;-62
2022/03/23 00:24:28;;;;;;;12.00;11.10;;;;;;;;;;1618251;30;22556;-62
2022/03/23 00:25:20;;;;;;;12.57;11.20;;;;;;;;;;1617596;30;21700;-62
2022/03/23 00:26:15;;;;;;;12.82;11.68;;;;;;;;;;1618193;30;21598;-61
2022/03/23 00:27:07;;;;;;;13.02;11.68;;;;;;;;;;1613542;30;21763;-62
2022/03/23 00:27:59;;;;;;;13.10;11.77;;;;;;;;;;1617351;30;21598;-63
2022/03/23 00:28:50;;;;;;;12.93;11.57;;;;;;;;;;1617704;30;21593;-62
2022/03/23 00:29:43;;;;;;;12.88;11.77;;;;;;;;;;1619210;30;22168;-62
2022/03/23 00:30:34;;;;;;;11.90;10.98;;;;;;;;;;1618691;30;21698;-62
2022/03/23 00:31:26;;;;;;;13.13;11.73;;;;;;;;;;1617825;30;22500;-62
2022/03/23 00:32:18;;;;;;;12.90;11.82;;;;;;;;;;1619329;30;21868;-62
2022/03/23 00:33:10;;;;;;;12.45;11.48;;;;;;;;;;1617455;30;21800;-62
2022/03/23 00:34:01;;;;;;;13.50;12.13;;;;;;;;;;1617393;30;22540;-63
2022/03/23 00:34:54;;;;;;;12.57;11.63;;;;;;;;;;1617593;30;21863;-63
2022/03/23 00:35:45;;;;;;;15.45;11.90;;;;;;;;;;1619141;30;21681;-62
2022/03/23 00:36:38;;;;;;;12.85;11.60;;;;;;;;;;1619857;30;22579;-63
2022/03/23 00:37:30;;;;;;;12.07;11.18;;;;;;;;;;1618008;30;22056;-63
2022/03/23 00:38:22;;;;;;;12.68;11.68;;;;;;;;;;1619035;30;22223;-63
2022/03/23 00:39:14;;;;;;;14.75;10.60;;;;;;;;;;1618716;30;21649;-63
2022/03/23 00:40:08;;;;;;;11.23;10.30;;;;;;;;;;1618467;30;21731;-63
2022/03/23 00:41:00;;;;;;;12.23;11.13;;;;;;;;;;1617717;30;21846;-62
2022/03/23 00:41:54;;;;;;;13.25;12.05;;;;;;;;;;1617536;30;21607;-63
2022/03/23 00:42:45;;;;;;;12.50;11.57;;;;;;;;;;1617817;30;21695;-62
2022/03/23 00:43:37;;;;;;;12.50;11.60;;;;;;;;;;1617004;30;21657;-62
2022/03/23 00:44:29;;;;;;;12.15;11.27;;;;;;;;;;1617646;30;22046;-63
2022/03/23 00:45:20;;;;;;;12.13;11.30;;;;;;;;;;1617808;30;21891;-63
2022/03/23 00:46:13;;;;;;;12.80;11.68;;;;;;;;;;1619877;30;21673;-63
2022/03/23 00:47:05;;;;;;;12.93;11.88;;;;;;;;;;1617917;30;21646;-64
2022/03/23 00:47:58;;;;;;;13.15;12.13;;;;;;;;;;1617124;30;21637;-62
2022/03/23 00:48:49;;;;;;;14.25;12.85;;;;;;;;;;1618840;30;23190;-62
2022/03/23 00:49:41;;;;;;;12.95;11.93;;;;;;;;;;1619304;30;21658;-62
2022/03/23 00:50:33;;;;;;;13.95;12.73;;;;;;;;;;1616994;30;21603;-62
2022/03/23 00:51:25;;;;;;;12.65;11.40;;;;;;;;;;1619296;30;21974;-62
2022/03/23 00:52:17;;;;;;;12.65;11.68;;;;;;;;;;1619627;30;22396;-62
2022/03/23 00:53:09;;;;;;;12.73;11.68;;;;;;;;;;1618308;30;21924;-63
2022/03/23 00:54:00;;;;;;;14.77;11.73;;;;;;;;;;1618992;30;21593;-63
2022/03/23 00:54:53;;;;;;;13.20;12.15;;;;;;;;;;1617893;30;21611;-62
2022/03/23 00:55:44;;;;;;;12.75;11.73;;;;;;;;;;1617395;30;21958;-62
2022/03/23 00:56:37;;;;;;;13.93;12.45;;;;;;;;;;1617990;30;22484;-62
2022/03/23 00:57:29;;;;;;;17.95;12.45;;;;;;;;;;1617964;30;21708;-63
2022/03/23 00:58:22;;;;;;;12.60;11.60;;;;;;;;;;1617068;30;21644;-63
2022/03/23 00:59:13;;;;;;;14.57;11.88;;;;;;;;;;1618275;30;21656;-62
2022/03/23 01:00:10;;;;;;;13.32;11.90;;;;;;;;;;1618144;30;21814;-62
2022/03/23 01:01:01;;;;;;;13.30;12.32;;;;;;;;;;1616710;30;22219;-62
2022/03/23 01:01:54;;;;;;;12.80;11.60;;;;;;;;;;1617426;30;21647;-62
2022/03/23 01:02:46;;;;;;;12.68;11.52;;;;;;;;;;1610377;30;22339;-62
2022/03/23 01:03:38;;;;;;;12.30;10.93;;;;;;;;;;1615889;30;21684;-62
2022/03/23 01:04:29;;;;;;;12.43;11.55;;;;;;;;;;1620102;30;22606;-62
2022/03/23 01:05:22;;;;;;;13.63;12.35;;;;;;;;;;1618096;30;22551;-63
2022/03/23 01:06:14;;;;;;;13.45;12.27;;;;;;;;;;1616807;30;22071;-63
2022/03/23 01:07:06;;;;;;;13.38;11.98;;;;;;;;;;1617721;30;22008;-63
2022/03/23 01:07:58;;;;;;;13.13;12.00;;;;;;;;;;1620546;29;21862;-62
2022/03/23 01:08:51;;;;;;;13.45;12.25;;;;;;;;;;1618353;30;21640;-62
2022/03/23 01:09:42;;;;;;;16.02;12.73;;;;;;;;;;1618373;30;21894;-63
2022/03/23 01:10:35;;;;;;;13.10;11.57;;;;;;;;;;1619949;30;21692;-63
2022/03/23 01:11:26;;;;;;;14.07;12.23;;;;;;;;;;1620167;30;22370;-63
2022/03/23 01:12:18;;;;;;;13.65;12.43;;;;;;;;;;1619608;30;21661;-63
2022/03/23 01:13:11;;;;;;;13.73;12.30;;;;;;;;;;1617644;30;21588;-62
2022/03/23 01:14:04;;;;;;;13.27;12.23;;;;;;;;;;1617310;30;21597;-62
2022/03/23 01:14:56;;;;;;;12.13;11.13;;;;;;;;;;1614182;30;22493;-62
2022/03/23 01:15:48;;;;;;;12.73;11.82;;;;;;;;;;1617169;30;21753;-62
2022/03/23 01:16:40;;;;;;;14.07;11.95;;;;;;;;;;1618627;30;21598;-62
2022/03/23 01:17:33;;;;;;;13.27;12.05;;;;;;;;;;1618059;30;21611;-61
2022/03/23 01:18:24;;;;;;;12.70;11.70;;;;;;;;;;1621665;30;21615;-61
2022/03/23 01:19:17;;;;;;;13.88;12.73;;;;;;;;;;1618102;30;21665;-62
2022/03/23 01:20:11;;;;;;;13.15;11.93;;;;;;;;;;1619333;30;21615;-63
2022/03/23 01:21:03;;;;;;;12.95;11.75;;;;;;;;;;1617092;30;22055;-62
2022/03/23 01:21:55;;;;;;;20.13;11.68;;;;;;;;;;1617632;30;22190;-62
2022/03/23 01:22:47;;;;;;;12.63;11.68;;;;;;;;;;1617091;30;21820;-62
2022/03/23 01:23:39;;;;;;;12.38;11.35;;;;;;;;;;1618763;29;22044;-62
2022/03/23 01:24:32;;;;;;;13.52;12.23;;;;;;;;;;1618546;30;21680;-62
2022/03/23 01:25:23;;;;;;;12.23;11.38;;;;;;;;;;1618521;30;22450;-63
2022/03/23 01:26:15;;;;;;;13.65;12.35;;;;;;;;;;1618564;30;22375;-63
2022/03/23 01:27:08;;;;;;;12.80;11.80;;;;;;;;;;1613126;30;22345;-62
2022/03/23 01:28:00;;;;;;;13.50;12.13;;;;;;;;;;1618217;30;22818;-62
2022/03/23 01:28:53;;;;;;;14.52;12.75;;;;;;;;;;1617948;30;21632;-62
2022/03/23 01:29:45;;;;;;;13.52;12.18;;;;;;;;;;1613336;30;21639;-62
2022/03/23 01:30:36;;;;;;;13.40;12.10;;;;;;;;;;1617198;30;21959;-62
2022/03/23 01:31:29;;;;;;;13.93;11.90;;;;;;;;;;1618208;30;22502;-63
2022/03/23 01:32:20;;;;;;;13.50;12.15;;;;;;;;;;1619396;30;21860;-63
2022/03/23 01:33:12;;;;;;;14.57;12.43;;;;;;;;;;1618865;30;22046;-62
2022/03/23 01:34:04;;;;;;;13.43;12.25;;;;;;;;;;1617687;30;22404;-63
2022/03/23 01:34:56;;;;;;;14.07;12.15;;;;;;;;;;1618839;30;22644;-62
2022/03/23 01:35:47;;;;;;;17.88;11.70;;;;;;;;;;1618945;30;22012;-62
2022/03/23 01:36:39;;;;;;;16.92;12.23;;;;;;;;;;1619630;30;21672;-63
2022/03/23 01:37:31;;;;;;;14.68;11.90;;;;;;;;;;1619135;30;22506;-63
2022/03/23 01:38:23;;;;;;;14.45;12.90;;;;;;;;;;1618924;30;22479;-63
2022/03/23 01:39:15;;;;;;;17.98;12.38;;;;;;;;;;1618422;30;21610;-63
2022/03/23 01:40:11;;;;;;;14.38;13.02;;;;;;;;;;1619022;30;21867;-63
2022/03/23 01:41:03;;;;;;;14.07;12.77;;;;;;;;;;1618415;30;21954;-62
2022/03/23 01:41:56;;;;;;;13.50;12.30;;;;;;;;;;1618390;30;21600;-61
2022/03/23 01:42:47;;;;;;;14.95;12.45;;;;;;;;;;1619348;30;22422;-62
2022/03/23 01:43:39;;;;;;;13.77;12.40;;;;;;;;;;1619050;30;22479;-62
2022/03/23 01:44:32;;;;;;;13.10;12.05;;;;;;;;;;1619668;30;21642;-63
2022/03/23 01:45:25;;;;;;;13.63;12.32;;;;;;;;;;1619572;30;21806;-62
2022/03/23 01:46:17;;;;;;;16.40;12.63;;;;;;;;;;1618499;30;21657;-63
2022/03/23 01:47:12;;;;;;;14.55;13.05;;;;;;;;;;1618904;30;22486;-63
2022/03/23 01:48:04;;;;;;;13.40;12.20;;;;;;;;;;1615795;30;21617;-62
2022/03/23 01:48:56;;;;;;;14.50;13.07;;;;;;;;;;1618819;30;21616;-62
2022/03/23 01:49:52;;;;;;;13.90;12.73;;;;;;;;;;1621380;30;21668;-62
2022/03/23 01:50:44;;;;;;;13.30;11.75;;;;;;;;;;1618334;30;21622;-62
2022/03/23 01:51:35;;;;;;;14.00;12.48;;;;;;;;;;1619848;30;21623;-62
2022/03/23 01:52:31;;;;;;;13.25;11.77;;;;;;;;;;1620403;30;21585;-62
2022/03/23 01:53:23;;;;;;;13.85;12.45;;;;;;;;;;1620801;30;22066;-62
2022/03/23 01:54:15;;;;;;;13.27;12.27;;;;;;;;;;1620361;30;21639;-62
2022/03/23 01:55:09;;;;;;;14.35;13.15;;;;;;;;;;1619886;30;21930;-63
2022/03/23 01:56:01;;;;;;;23.23;11.27;;;;;;;;;;1618139;30;21739;-63
2022/03/23 01:56:53;;;;;;;12.45;11.45;;;;;;;;;;1617595;30;21652;-63
2022/03/23 01:57:49;;;;;;;13.45;12.40;;;;;;;;;;1617853;30;22759;-63
2022/03/23 01:58:41;;;;;;;13.00;12.00;;;;;;;;;;1618804;30;21983;-63
2022/03/23 01:59:36;;;;;;;12.32;11.32;;;;;;;;;;1619263;30;21591;-64
2022/03/23 02:00:28;;;;;;;13.85;12.45;;;;;;;;;;1619240;30;22108;-63
2022/03/23 02:01:20;;;;;;;11.98;11.18;;;;;;;;;;1618214;30;21889;-63
2022/03/23 02:02:12;;;;;;;14.85;12.27;;;;;;;;;;1618929;30;21588;-63
2022/03/23 02:03:05;;;;;;;12.80;11.60;;;;;;;;;;1618907;30;22281;-63
2022/03/23 02:03:56;;;;;;;12.88;11.77;;;;;;;;;;1618485;30;22439;-63
2022/03/23 02:04:48;;;;;;;13.40;11.95;;;;;;;;;;1618328;30;22294;-63
2022/03/23 02:05:40;;;;;;;20.15;12.15;;;;;;;;;;1619213;30;21645;-62
2022/03/23 02:06:32;;;;;;;13.10;11.90;;;;;;;;;;1619230;30;21758;-64
2022/03/23 02:07:24;;;;;;;15.52;13.57;;;;;;;;;;1618504;30;21693;-62
2022/03/23 02:08:16;;;;;;;15.50;13.02;;;;;;;;;;1618681;30;21785;-62
2022/03/23 02:09:08;;;;;;;13.57;12.32;;;;;;;;;;1618868;30;22100;-62
2022/03/23 02:10:00;;;;;;;13.13;12.10;;;;;;;;;;1617426;30;22373;-62
2022/03/23 02:10:52;;;;;;;13.48;12.27;;;;;;;;;;1617281;30;21602;-62
2022/03/23 02:11:45;;;;;;;13.30;12.30;;;;;;;;;;1619194;30;21971;-62
2022/03/23 02:12:38;;;;;;;14.35;12.00;;;;;;;;;;1623685;30;21702;-62
2022/03/23 02:13:30;;;;;;;20.08;12.13;;;;;;;;;;1619902;30;21613;-62
2022/03/23 02:14:21;;;;;;;13.35;12.25;;;;;;;;;;1618130;30;21871;-62
2022/03/23 02:15:17;;;;;;;13.45;12.27;;;;;;;;;;1617727;30;21831;-63
2022/03/23 02:16:09;;;;;;;14.43;12.10;;;;;;;;;;1618113;30;21557;-63
2022/03/23 02:17:01;;;;;;;13.77;12.57;;;;;;;;;;1618796;30;22384;-63
2022/03/23 02:17:53;;;;;;;13.52;12.38;;;;;;;;;;1618576;30;21811;-62
2022/03/23 02:18:46;;;;;;;14.25;13.05;;;;;;;;;;1619265;30;21593;-61
2022/03/23 02:19:37;;;;;;;13.98;12.60;;;;;;;;;;1618637;30;22443;-62
2022/03/23 02:20:30;;;;;;;15.93;13.02;;;;;;;;;;1619147;30;21916;-63
2022/03/23 02:21:22;;;;;;;12.70;11.70;;;;;;;;;;1620098;29;21764;-62
2022/03/23 02:22:16;;;;;;;13.52;12.15;;;;;;;;;;1611861;30;21622;-62
2022/03/23 02:23:08;;;;;;;13.23;12.02;;;;;;;;;;1618196;30;21652;-63
2022/03/23 02:24:00;;;;;;;13.35;12.35;;;;;;;;;;1616413;30;21657;-63
2022/03/23 02:24:52;;;;;;;15.23;13.55;;;;;;;;;;1617880;30;21630;-62
2022/03/23 02:25:47;;;;;;;15.00;13.57;;;;;;;;;;1615307;30;21673;-62
2022/03/23 02:26:38;;;;;;;13.82;12.27;;;;;;;;;;1618057;30;22732;-61
2022/03/23 02:27:31;;;;;;;15.98;12.55;;;;;;;;;;1618624;30;21635;-61
2022/03/23 02:28:23;;;;;;;13.98;12.90;;;;;;;;;;1618681;30;21915;-63
2022/03/23 02:29:16;;;;;;;14.13;12.93;;;;;;;;;;1619577;30;21614;-63
2022/03/23 02:30:09;;;;;;;13.75;12.70;;;;;;;;;;1620264;30;21587;-62
2022/03/23 02:31:02;;;;;;;14.23;13.02;;;;;;;;;;1617937;30;22400;-63
2022/03/23 02:31:53;;;;;;;14.13;12.65;;;;;;;;;;1619254;30;21663;-63
2022/03/23 02:32:46;;;;;;;13.02;12.02;;;;;;;;;;1618669;30;22626;-62
2022/03/23 02:33:37;;;;;;;13.68;12.35;;;;;;;;;;1620215;30;22611;-62
2022/03/23 02:34:30;;;;;;;14.45;13.10;;;;;;;;;;1618264;30;22573;-62
2022/03/23 02:35:21;;;;;;;13.82;12.80;;;;;;;;;;1619194;30;21674;-61
2022/03/23 02:36:13;;;;;;;14.68;12.45;;;;;;;;;;1620823;30;21996;-62
2022/03/23 02:37:05;;;;;;;17.10;12.70;;;;;;;;;;1618413;30;21680;-63
2022/03/23 02:37:59;;;;;;;13.48;12.32;;;;;;;;;;1621467;30;21778;-63
2022/03/23 02:38:51;;;;;;;14.15;12.70;;;;;;;;;;1618984;30;21927;-62
2022/03/23 02:39:43;;;;;;;14.60;13.23;;;;;;;;;;1617948;30;21649;-62
2022/03/23 02:40:35;;;;;;;13.50;12.38;;;;;;;;;;1615573;30;21731;-62
2022/03/23 02:41:28;;;;;;;13.82;12.77;;;;;;;;;;1619355;30;22059;-63
2022/03/23 02:42:19;;;;;;;13.80;12.50;;;;;;;;;;1618155;30;21661;-62
2022/03/23 02:43:11;;;;;;;14.15;13.00;;;;;;;;;;1617841;30;22427;-62
2022/03/23 02:44:03;;;;;;;15.25;13.10;;;;;;;;;;1621409;30;21718;-62
2022/03/23 02:44:55;;;;;;;14.45;12.98;;;;;;;;;;1617450;30;21861;-62
2022/03/23 02:45:47;;;;;;;14.30;12.90;;;;;;;;;;1619324;30;21641;-61
2022/03/23 02:46:38;;;;;;;13.60;12.23;;;;;;;;;;1621388;30;21611;-62
2022/03/23 02:47:31;;;;;;;14.98;13.15;;;;;;;;;;1620615;30;22091;-62
2022/03/23 02:48:22;;;;;;;13.77;12.35;;;;;;;;;;1618749;30;21638;-62
2022/03/23 02:49:16;;;;;;;16.83;12.35;;;;;;;;;;1619326;30;21609;-63
2022/03/23 02:50:09;;;;;;;14.23;12.93;;;;;;;;;;1618796;30;21618;-63
2022/03/23 02:51:01;;;;;;;14.73;13.10;;;;;;;;;;1618844;30;21638;-63
2022/03/23 02:51:53;;;;;;;13.20;11.95;;;;;;;;;;1619411;30;21702;-63
2022/03/23 03:02:22;;;;;;;13.88;12.32;;;;;;;;;;1619396;30;22032;-63
2022/03/23 03:03:14;;;;;;;13.27;12.07;;;;;;;;;;1619173;30;21746;-63
2022/03/23 03:04:07;;;;;;;17.90;12.35;;;;;;;;;;1623351;30;21589;-64
2022/03/23 03:04:59;;;;;;;13.35;11.95;;;;;;;;;;1621132;30;22776;-63
2022/03/23 03:05:51;;;;;;;15.95;12.73;;;;;;;;;;1618128;30;21582;-63
2022/03/23 03:06:42;;;;;;;12.43;11.25;;;;;;;;;;1618641;30;21760;-60
2022/03/23 03:08:48;;;;;;;13.25;12.15;;;;;;;;;;1624696;30;21980;-62
2022/03/23 03:09:40;;;;;;;14.50;12.85;;;;;;;;;;1615654;30;21977;-62
2022/03/23 03:10:33;;;;;;;13.05;11.88;;;;;;;;;;1618316;30;22068;-63
2022/03/23 03:11:25;;;;;;;13.18;11.98;;;;;;;;;;1615960;30;22348;-62
2022/03/23 03:12:18;;;;;;;12.63;11.55;;;;;;;;;;1618781;30;21650;-62
2022/03/23 03:13:09;;;;;;;14.25;12.98;;;;;;;;;;1620067;30;22123;-63
2022/03/23 03:14:02;;;;;;;13.73;12.38;;;;;;;;;;1618236;30;21793;-62
2022/03/23 03:14:54;;;;;;;13.65;12.50;;;;;;;;;;1615897;30;22513;-62
2022/03/23 03:15:46;;;;;;;13.93;12.48;;;;;;;;;;1618257;30;22233;-63
2022/03/23 03:16:38;;;;;;;13.85;12.52;;;;;;;;;;1617878;30;22576;-64
2022/03/23 03:17:30;;;;;;;18.50;12.65;;;;;;;;;;1620059;30;21769;-62
2022/03/23 03:18:22;;;;;;;12.63;11.48;;;;;;;;;;1620672;30;21633;-63
2022/03/23 03:19:14;;;;;;;13.85;12.40;;;;;;;;;;1618566;30;21570;-63
2022/03/23 03:20:07;;;;;;;13.43;12.18;;;;;;;;;;1620164;30;22114;-63
2022/03/23 03:21:00;;;;;;;12.77;11.68;;;;;;;;;;1618226;30;21926;-63
2022/03/23 03:21:51;;;;;;;13.80;12.43;;;;;;;;;;1619204;30;21755;-63
2022/03/23 03:22:45;;;;;;;12.93;11.75;;;;;;;;;;1617963;30;21659;-63
2022/03/23 03:23:37;;;;;;;13.68;12.13;;;;;;;;;;1617436;30;21745;-62
2022/03/23 03:24:30;;;;;;;13.85;12.45;;;;;;;;;;1618605;30;22083;-63
2022/03/23 03:25:22;;;;;;;13.85;12.23;;;;;;;;;;1617071;30;21611;-63
2022/03/23 03:26:17;;;;;;;13.68;12.30;;;;;;;;;;1618843;30;21830;-63
2022/03/23 03:27:09;;;;;;;15.32;12.48;;;;;;;;;;1612510;30;21618;-63
2022/03/23 03:28:01;;;;;;;14.40;12.95;;;;;;;;;;1619574;30;21625;-63
2022/03/23 03:28:52;;;;;;;13.13;11.95;;;;;;;;;;1615448;30;22482;-63
2022/03/23 03:29:45;;;;;;;13.38;12.18;;;;;;;;;;1618115;30;21822;-63
2022/03/23 03:30:36;;;;;;;13.10;11.85;;;;;;;;;;1618654;29;22014;-64
2022/03/23 03:31:29;;;;;;;13.32;12.05;;;;;;;;;;1618321;30;21605;-63
2022/03/23 03:32:20;;;;;;;12.82;11.80;;;;;;;;;;1621143;30;21679;-63
2022/03/23 03:33:12;;;;;;;12.73;11.60;;;;;;;;;;1617184;30;21607;-63
2022/03/23 03:34:03;;;;;;;20.42;13.13;;;;;;;;;;1618584;30;21639;-62
2022/03/23 03:34:55;;;;;;;14.88;12.00;;;;;;;;;;1618966;30;21718;-62
2022/03/23 03:35:47;;;;;;;18.20;13.45;;;;;;;;;;1617395;30;22115;-63
2022/03/23 03:36:41;;;;;;;20.42;12.73;;;;;;;;;;1617992;30;21591;-62
2022/03/23 03:37:32;;;;;;;15.95;13.13;;;;;;;;;;1619385;30;21729;-63
2022/03/23 03:38:23;;;;;;;15.00;12.35;;;;;;;;;;1617567;30;21948;-63
2022/03/23 03:39:16;;;;;;;22.90;13.55;;;;;;;;;;1619515;30;21587;-64
2022/03/23 03:40:09;;;;;;;22.02;12.95;;;;;;;;;;1617470;30;22445;-63
2022/03/23 03:41:05;;;;;;;14.95;13.45;;;;;;;;;;1617887;30;22466;-62
2022/03/23 03:41:57;;;;;;;20.35;12.40;;;;;;;;;;1617632;30;22437;-63
2022/03/23 03:42:49;;;;;;;18.52;12.20;;;;;;;;;;1617398;30;22128;-63
2022/03/23 03:43:40;;;;;;;19.13;12.98;;;;;;;;;;1618662;30;22052;-63
2022/03/23 03:44:34;;;;;;;15.00;12.85;;;;;;;;;;1617935;30;21972;-63
2022/03/23 03:45:25;;;;;;;13.90;12.50;;;;;;;;;;1618160;30;21963;-64
2022/03/23 03:46:18;;;;;;;19.42;13.50;;;;;;;;;;1619359;30;21703;-63
2022/03/23 03:47:10;;;;;;;13.50;12.15;;;;;;;;;;1617802;30;21923;-62
2022/03/23 03:48:02;;;;;;;23.13;13.38;;;;;;;;;;1616600;30;21612;-62
2022/03/23 03:48:53;;;;;;;14.40;13.02;;;;;;;;;;1618729;30;21813;-62
2022/03/23 03:49:46;;;;;;;16.40;12.63;;;;;;;;;;1619671;30;22501;-62
2022/03/23 03:50:39;;;;;;;14.48;13.00;;;;;;;;;;1617048;30;22082;-63
2022/03/23 03:51:31;;;;;;;17.80;13.27;;;;;;;;;;1617481;30;21704;-63
2022/03/23 03:52:22;;;;;;;15.77;12.98;;;;;;;;;;1619437;30;21697;-63
2022/03/23 03:53:15;;;;;;;14.95;13.48;;;;;;;;;;1618932;30;22138;-63
2022/03/23 03:54:06;;;;;;;15.43;12.32;;;;;;;;;;1619687;30;21648;-62
2022/03/23 03:54:59;;;;;;;19.75;12.70;;;;;;;;;;1619400;30;21600;-63
2022/03/23 03:55:50;;;;;;;15.63;12.88;;;;;;;;;;1617428;30;21714;-62
2022/03/23 03:56:44;;;;;;;15.57;13.25;;;;;;;;;;1622115;30;21729;-62
2022/03/23 03:57:35;;;;;;;28.25;13.32;;;;;;;;;;1619590;30;22310;-62
2022/03/23 03:58:27;;;;;;;15.45;12.13;;;;;;;;;;1618097;30;21696;-62
2022/03/23 03:59:18;;;;;;;17.50;12.93;;;;;;;;;;1615500;29;22016;-62
2022/03/23 04:00:13;;;;;;;17.23;12.90;;;;;;;;;;1620657;30;21687;-62
2022/03/23 04:01:05;;;;;;;15.20;13.38;;;;;;;;;;1619007;30;21786;-63
2022/03/23 04:01:57;;;;;;;18.25;13.13;;;;;;;;;;1624884;30;21696;-62
2022/03/23 04:02:49;;;;;;;15.48;12.18;;;;;;;;;;1623151;30;21706;-62
2022/03/23 04:03:41;;;;;;;16.10;14.00;;;;;;;;;;1619149;30;21647;-63
2022/03/23 04:04:32;;;;;;;19.88;12.82;;;;;;;;;;1619709;30;21601;-63
2022/03/23 04:05:25;;;;;;;14.70;13.18;;;;;;;;;;1618142;30;21802;-62
2022/03/23 04:06:16;;;;;;;14.25;12.88;;;;;;;;;;1618015;29;21907;-62
2022/03/23 04:07:09;;;;;;;14.43;12.32;;;;;;;;;;1618197;30;21805;-63
2022/03/23 04:08:00;;;;;;;17.42;13.05;;;;;;;;;;1619343;30;21624;-62
2022/03/23 04:08:52;;;;;;;24.00;13.70;;;;;;;;;;1616841;30;21710;-62
2022/03/23 04:09:44;;;;;;;14.13;12.63;;;;;;;;;;1619076;30;21615;-62
2022/03/23 04:10:36;;;;;;;14.77;13.35;;;;;;;;;;1618570;30;21614;-63
2022/03/23 04:11:30;;;;;;;22.83;13.75;;;;;;;;;;1618858;30;22415;-62
2022/03/23 04:12:23;;;;;;;24.13;13.98;;;;;;;;;;1619964;30;21616;-63
2022/03/23 04:13:15;;;;;;;15.48;12.65;;;;;;;;;;1619703;30;21646;-62
2022/03/23 04:14:07;;;;;;;40.72;13.98;;;;;;;;;;1618768;30;21655;-63
2022/03/23 04:14:59;;;;;;;19.98;12.75;;;;;;;;;;1618192;30;22009;-63
2022/03/23 04:15:51;;;;;;;24.25;13.02;;;;;;;;;;1617817;30;21729;-63
2022/03/23 04:16:42;;;;;;;17.40;13.43;;;;;;;;;;1617086;30;21979;-62
2022/03/23 04:17:35;;;;;;;26.95;13.00;;;;;;;;;;1618413;30;22659;-63
2022/03/23 04:18:26;;;;;;;20.40;13.52;;;;;;;;;;1618526;30;21687;-63
2022/03/23 04:19:19;;;;;;;21.75;13.10;;;;;;;;;;1618383;30;21777;-62
2022/03/23 04:20:11;;;;;;;20.40;12.75;;;;;;;;;;1618614;30;22547;-62
2022/03/23 04:21:03;;;;;;;16.05;13.95;;;;;;;;;;1617733;30;21789;-63
2022/03/23 04:21:55;;;;;;;16.38;13.25;;;;;;;;;;1618202;30;21588;-63
2022/03/23 04:22:46;;;;;;;17.77;13.05;;;;;;;;;;1618169;30;21582;-62
2022/03/23 04:23:38;;;;;;;18.83;13.13;;;;;;;;;;1618366;30;22419;-62
2022/03/23 04:24:29;;;;;;;14.25;12.93;;;;;;;;;;1619860;30;21611;-63
2022/03/23 04:25:22;;;;;;;29.42;12.52;;;;;;;;;;1619080;30;21747;-63
2022/03/23 04:26:13;;;;;;;19.42;13.02;;;;;;;;;;1618414;30;21653;-64
2022/03/23 04:27:06;;;;;;;14.25;12.73;;;;;;;;;;1618812;30;21875;-63
2022/03/23 04:27:59;;;;;;;15.20;13.13;;;;;;;;;;1618716;30;22137;-63
2022/03/23 04:28:52;;;;;;;16.77;12.60;;;;;;;;;;1617860;30;21673;-63
2022/03/23 04:29:43;;;;;;;13.80;12.48;;;;;;;;;;1618425;30;21779;-63
2022/03/23 04:30:35;;;;;;;17.80;13.43;;;;;;;;;;1618856;30;21761;-63
2022/03/23 04:31:26;;;;;;;29.38;12.98;;;;;;;;;;1619010;30;22505;-63
2022/03/23 04:32:19;;;;;;;17.52;12.88;;;;;;;;;;1618553;30;21590;-63
2022/03/23 04:33:10;;;;;;;18.70;12.93;;;;;;;;;;1617816;30;21875;-63
2022/03/23 04:34:02;;;;;;;17.10;13.05;;;;;;;;;;1619008;30;22027;-63
2022/03/23 04:34:53;;;;;;;25.77;13.38;;;;;;;;;;1618964;30;21613;-63
2022/03/23 04:35:46;;;;;;;16.77;12.73;;;;;;;;;;1617733;30;21735;-63
2022/03/23 04:36:38;;;;;;;14.10;12.18;;;;;;;;;;1617663;30;22735;-62
2022/03/23 04:37:29;;;;;;;19.52;13.02;;;;;;;;;;1618134;30;21734;-62
2022/03/23 04:38:22;;;;;;;20.77;12.20;;;;;;;;;;1618337;30;21857;-62
2022/03/23 04:39:13;;;;;;;15.27;12.88;;;;;;;;;;1617813;30;21618;-62
2022/03/23 04:40:08;;;;;;;20.58;12.88;;;;;;;;;;1618340;30;21616;-63
2022/03/23 04:40:59;;;;;;;14.00;12.52;;;;;;;;;;1618343;30;22527;-62
2022/03/23 04:41:52;;;;;;;19.70;13.10;;;;;;;;;;1617342;30;22364;-62
2022/03/23 04:42:44;;;;;;;20.23;12.90;;;;;;;;;;1618294;30;21718;-63
2022/03/23 04:43:38;;;;;;;18.73;12.48;;;;;;;;;;1619190;30;21710;-62
2022/03/23 04:44:30;;;;;;;18.10;12.50;;;;;;;;;;1618665;30;21749;-63
2022/03/23 04:45:22;;;;;;;14.30;12.93;;;;;;;;;;1619163;30;21586;-62
2022/03/23 04:46:13;;;;;;;15.38;13.27;;;;;;;;;;1621217;30;22219;-62
2022/03/23 04:47:06;;;;;;;24.00;13.48;;;;;;;;;;1619410;30;22072;-63
2022/03/23 04:47:58;;;;;;;16.00;12.90;;;;;;;;;;1617892;30;21610;-64
2022/03/23 04:48:50;;;;;;;17.25;12.95;;;;;;;;;;1618257;30;21960;-63
2022/03/23 04:49:42;;;;;;;18.85;12.93;;;;;;;;;;1620252;30;21671;-62
2022/03/23 04:50:34;;;;;;;17.67;13.00;;;;;;;;;;1618032;30;21941;-62
2022/03/23 04:51:25;;;;;;;16.85;12.70;;;;;;;;;;1619310;30;21648;-62
2022/03/23 04:52:18;;;;;;;17.05;12.98;;;;;;;;;;1619255;30;22465;-63
2022/03/23 04:53:09;;;;;;;15.05;13.50;;;;;;;;;;1620510;30;21685;-62
2022/03/23 04:54:02;;;;;;;17.65;12.90;;;;;;;;;;1616611;30;21697;-62
2022/03/23 04:54:56;;;;;;;15.48;12.50;;;;;;;;;;1618782;30;21703;-62
2022/03/23 04:55:48;;;;;;;14.57;13.05;;;;;;;;;;1618999;30;22531;-63
2022/03/23 04:56:40;;;;;;;23.45;12.73;;;;;;;;;;1616496;30;21988;-63
2022/03/23 04:57:32;;;;;;;29.40;14.18;;;;;;;;;;1619212;30;21568;-62
2022/03/23 04:58:25;;;;;;;17.90;13.32;;;;;;;;;;1618006;30;21951;-63
2022/03/23 04:59:19;;;;;;;17.98;12.98;;;;;;;;;;1618367;30;21620;-62
2022/03/23 05:00:15;;;;;;;27.45;13.35;;;;;;;;;;1619281;30;21652;-62
2022/03/23 05:01:07;;;;;;;16.25;13.55;;;;;;;;;;1618610;30;22000;-63
2022/03/23 05:01:59;;;;;;;22.88;13.50;;;;;;;;;;1620321;30;21644;-63
2022/03/23 05:02:51;;;;;;;19.98;12.98;;;;;;;;;;1618688;30;22064;-63
2022/03/23 05:03:42;;;;;;;23.65;13.05;;;;;;;;;;1618492;30;21608;-62
2022/03/23 05:04:34;;;;;;;19.42;12.60;;;;;;;;;;1622037;30;21631;-62
2022/03/23 05:05:26;;;;;;;16.55;12.95;;;;;;;;;;1619071;30;21617;-63
2022/03/23 05:06:18;;;;;;;18.23;13.65;;;;;;;;;;1618422;30;22444;-63
2022/03/23 05:07:10;;;;;;;16.38;12.50;;;;;;;;;;1619267;30;22562;-62
2022/03/23 05:08:02;;;;;;;15.65;13.10;;;;;;;;;;1619076;30;21598;-62
2022/03/23 05:08:53;;;;;;;31.17;13.65;;;;;;;;;;1618223;30;22824;-62
2022/03/23 05:09:46;;;;;;;22.60;12.65;;;;;;;;;;1618552;30;21609;-62
2022/03/23 05:10:37;;;;;;;22.05;13.13;;;;;;;;;;1620676;30;22927;-63
2022/03/23 05:11:29;;;;;;;26.48;13.18;;;;;;;;;;1619620;30;22498;-62
2022/03/23 05:12:20;;;;;;;17.67;12.80;;;;;;;;;;1618929;30;22077;-63
2022/03/23 05:13:12;;;;;;;20.23;13.50;;;;;;;;;;1620754;30;22795;-62
2022/03/23 05:14:04;;;;;;;22.83;13.70;;;;;;;;;;1619641;30;22151;-63